sensor_id;sensor_type;location;lat;lon;timestamp;P1;durP1;ratioP1;P2;durP2;ratioP2
4272;SDS011;63887;53.656;9.810;2023-02-23T09:55:17;30.38;;;8.46;;
4272;SDS011;63887;53.656;9.810;2023-02-23T09:55:33;25.95;;;8.40;;
4272;SDS011;63887;53.656;9.810;2023-02-23T09:55:49;24.37;;;9.00;;
4272;SDS011;63887;53.656;9.810;2023-02-23T09:56:07;26.75;;;9.73;;
4272;SDS011;63887;53.656;9.810;2023-02-23T09:56:27;27.05;;;10.40;;
4272;SDS011;63887;53.656;9.810;2023-02-23T09:56:46;27.55;;;10.30;;
4272;SDS011;63887;53.656;9.810;2023-02-23T09:57:02;26.30;;;10.30;;
4272;SDS011;63887;53.656;9.810;2023-02-23T09:57:20;30.10;;;10.40;;
4272;SDS011;63887;53.656;9.810;2023-02-23T09:57:38;29.90;;;10.73;;
4272;SDS011;63887;53.656;9.810;2023-02-23T09:57:55;30.85;;;10.52;;
4272;SDS011;63887;53.656;9.810;2023-02-23T09:58:16;29.77;;;10.43;;
4272;SDS011;63887;53.656;9.810;2023-02-23T09:58:33;32.42;;;10.27;;
4272;SDS011;63887;53.656;9.810;2023-02-23T09:58:49;34.08;;;10.43;;
4272;SDS011;63887;53.656;9.810;2023-02-23T09:59:06;32.08;;;10.35;;
4272;SDS011;63887;53.656;9.810;2023-02-23T09:59:21;29.85;;;10.27;;
4272;SDS011;63887;53.656;9.810;2023-02-23T09:59:38;27.83;;;10.40;;
4272;SDS011;63887;53.656;9.810;2023-02-23T09:59:53;30.48;;;10.60;;
4272;SDS011;63887;53.656;9.810;2023-02-23T10:00:11;29.20;;;10.90;;
4272;SDS011;63887;53.656;9.810;2023-02-23T10:09:37;158.06;;;80.02;;
4272;SDS011;63887;53.656;9.810;2023-02-23T10:10:09;151.80;;;71.35;;
4272;SDS011;63887;53.656;9.810;2023-02-23T10:10:37;149.02;;;70.68;;
4272;SDS011;63887;53.656;9.810;2023-02-23T10:11:00;144.40;;;69.30;;
4272;SDS011;63887;53.656;9.810;2023-02-23T10:11:23;157.65;;;71.53;;
4272;SDS011;63887;53.656;9.810;2023-02-23T10:11:44;149.60;;;69.15;;
4272;SDS011;63887;53.656;9.810;2023-02-23T10:12:04;150.85;;;70.90;;
4272;SDS011;63887;53.656;9.810;2023-02-23T10:12:26;147.07;;;71.78;;
4272;SDS011;63887;53.656;9.810;2023-02-23T10:12:49;150.77;;;74.63;;
4272;SDS011;63887;53.656;9.810;2023-02-23T10:13:14;155.02;;;73.97;;
4272;SDS011;63887;53.656;9.810;2023-02-23T10:13:38;160.80;;;73.68;;
4272;SDS011;63887;53.656;9.810;2023-02-23T10:14:03;160.02;;;73.88;;
4272;SDS011;63887;53.656;9.810;2023-02-23T10:17:08;160.47;;;68.37;;
4272;SDS011;63887;53.656;9.810;2023-02-23T10:19:42;153.00;;;62.10;;
4272;SDS011;63887;53.656;9.810;2023-02-23T10:22:15;164.67;;;61.37;;
4272;SDS011;63887;53.656;9.810;2023-02-23T10:24:47;162.17;;;60.47;;
4272;SDS011;63887;53.656;9.810;2023-02-23T10:27:19;168.93;;;62.30;;
4272;SDS011;63887;53.656;9.810;2023-02-23T10:29:48;178.37;;;60.43;;
4272;SDS011;63887;53.656;9.810;2023-02-23T10:32:20;166.30;;;60.40;;
4272;SDS011;63887;53.656;9.810;2023-02-23T10:34:52;158.37;;;55.67;;
4272;SDS011;63887;53.656;9.810;2023-02-23T10:37:20;162.40;;;53.13;;
4272;SDS011;63887;53.656;9.810;2023-02-23T10:39:48;164.27;;;52.97;;
4272;SDS011;63887;53.656;9.810;2023-02-23T10:42:16;169.77;;;53.20;;
4272;SDS011;63887;53.656;9.810;2023-02-23T10:44:45;135.50;;;50.07;;
4272;SDS011;63887;53.656;9.810;2023-02-23T10:47:13;151.53;;;50.30;;
4272;SDS011;63887;53.656;9.810;2023-02-23T10:49:44;144.03;;;49.07;;
4272;SDS011;63887;53.656;9.810;2023-02-23T10:52:13;138.97;;;50.43;;
4272;SDS011;63887;53.656;9.810;2023-02-23T10:54:42;149.07;;;52.10;;
4272;SDS011;63887;53.656;9.810;2023-02-23T10:57:12;127.23;;;45.77;;
4272;SDS011;63887;53.656;9.810;2023-02-23T10:59:57;132.73;;;49.90;;
4272;SDS011;63887;53.656;9.810;2023-02-23T11:02:26;135.07;;;45.97;;
4272;SDS011;63887;53.656;9.810;2023-02-23T11:04:57;133.17;;;47.90;;
4272;SDS011;63887;53.656;9.810;2023-02-23T11:07:25;133.77;;;49.60;;
4272;SDS011;63887;53.656;9.810;2023-02-23T11:09:53;133.43;;;46.23;;
4272;SDS011;63887;53.656;9.810;2023-02-23T11:12:21;151.43;;;49.67;;
4272;SDS011;63887;53.656;9.810;2023-02-23T11:14:50;132.37;;;45.60;;
4272;SDS011;63887;53.656;9.810;2023-02-23T11:17:25;148.27;;;46.70;;
4272;SDS011;63887;53.656;9.810;2023-02-23T11:19:59;131.00;;;47.77;;
4272;SDS011;63887;53.656;9.810;2023-02-23T11:22:29;133.77;;;46.67;;
4272;SDS011;63887;53.656;9.810;2023-02-23T11:24:57;137.20;;;46.47;;
4272;SDS011;63887;53.656;9.810;2023-02-23T11:27:25;147.63;;;48.23;;
4272;SDS011;63887;53.656;9.810;2023-02-23T11:29:53;136.77;;;47.23;;
4272;SDS011;63887;53.656;9.810;2023-02-23T11:32:22;128.33;;;46.43;;
4272;SDS011;63887;53.656;9.810;2023-02-23T11:37:37;150.23;;;48.33;;
4272;SDS011;63887;53.656;9.810;2023-02-23T11:40:16;115.97;;;46.13;;
4272;SDS011;63887;53.656;9.810;2023-02-23T11:42:49;117.97;;;43.60;;
4272;SDS011;63887;53.656;9.810;2023-02-23T11:45:17;144.10;;;47.07;;
4272;SDS011;63887;53.656;9.810;2023-02-23T11:47:46;132.77;;;47.60;;
4272;SDS011;63887;53.656;9.810;2023-02-23T11:50:20;119.80;;;46.20;;
4272;SDS011;63887;53.656;9.810;2023-02-23T11:52:50;123.77;;;44.93;;
4272;SDS011;63887;53.656;9.810;2023-02-23T11:55:21;131.90;;;46.13;;
4272;SDS011;63887;53.656;9.810;2023-02-23T11:57:49;121.37;;;43.87;;
4272;SDS011;63887;53.656;9.810;2023-02-23T12:00:20;115.40;;;42.60;;
4272;SDS011;63887;53.656;9.810;2023-02-23T12:02:50;123.17;;;42.87;;
4272;SDS011;63887;53.656;9.810;2023-02-23T12:05:22;126.10;;;44.23;;
4272;SDS011;63887;53.656;9.810;2023-02-23T12:07:52;146.10;;;47.73;;
4272;SDS011;63887;53.656;9.810;2023-02-23T12:10:22;133.37;;;46.60;;
4272;SDS011;63887;53.656;9.810;2023-02-23T12:12:53;135.73;;;45.33;;
4272;SDS011;63887;53.656;9.810;2023-02-23T12:15:40;120.10;;;43.83;;
4272;SDS011;63887;53.656;9.810;2023-02-23T12:18:13;112.30;;;43.80;;
4272;SDS011;63887;53.656;9.810;2023-02-23T12:20:45;131.30;;;45.50;;
4272;SDS011;63887;53.656;9.810;2023-02-23T12:23:19;139.70;;;47.70;;
4272;SDS011;63887;53.656;9.810;2023-02-23T12:25:50;121.50;;;42.90;;
4272;SDS011;63887;53.656;9.810;2023-02-23T12:28:22;114.10;;;41.83;;
4272;SDS011;63887;53.656;9.810;2023-02-23T12:30:56;138.10;;;44.60;;
4272;SDS011;63887;53.656;9.810;2023-02-23T12:33:26;122.10;;;43.40;;
4272;SDS011;63887;53.656;9.810;2023-02-23T12:36:01;122.00;;;42.60;;
4272;SDS011;63887;53.656;9.810;2023-02-23T12:38:32;125.73;;;42.83;;
4272;SDS011;63887;53.656;9.810;2023-02-23T12:41:10;123.03;;;44.57;;
4272;SDS011;63887;53.656;9.810;2023-02-23T12:43:39;123.67;;;43.87;;
4272;SDS011;63887;53.656;9.810;2023-02-23T12:46:13;119.50;;;44.20;;
4272;SDS011;63887;53.656;9.810;2023-02-23T12:48:51;124.27;;;42.40;;
4272;SDS011;63887;53.656;9.810;2023-02-23T12:51:29;127.13;;;42.13;;
4272;SDS011;63887;53.656;9.810;2023-02-23T12:54:00;120.77;;;42.73;;
4272;SDS011;63887;53.656;9.810;2023-02-23T13:02:23;126.57;;;44.80;;
4272;SDS011;63887;53.656;9.810;2023-02-23T13:04:57;109.33;;;39.63;;
4272;SDS011;63887;53.656;9.810;2023-02-23T13:07:42;103.60;;;39.70;;
4272;SDS011;63887;53.656;9.810;2023-02-23T13:10:16;112.10;;;40.87;;
4272;SDS011;63887;53.656;9.810;2023-02-23T13:12:50;348.83;;;119.53;;
4272;SDS011;63887;53.656;9.810;2023-02-23T13:15:28;110.13;;;43.10;;
4272;SDS011;63887;53.656;9.810;2023-02-23T13:18:08;104.83;;;39.20;;
4272;SDS011;63887;53.656;9.810;2023-02-23T13:20:41;115.30;;;41.17;;
4272;SDS011;63887;53.656;9.810;2023-02-23T13:23:17;115.57;;;42.57;;
4272;SDS011;63887;53.656;9.810;2023-02-23T13:25:51;112.20;;;40.17;;
4272;SDS011;63887;53.656;9.810;2023-02-23T13:28:31;136.00;;;40.00;;
4272;SDS011;63887;53.656;9.810;2023-02-23T13:31:04;111.80;;;37.90;;
4272;SDS011;63887;53.656;9.810;2023-02-23T13:33:40;111.07;;;38.17;;
4272;SDS011;63887;53.656;9.810;2023-02-23T13:36:07;112.43;;;34.77;;
4272;SDS011;63887;53.656;9.810;2023-02-23T13:38:38;101.77;;;37.63;;
4272;SDS011;63887;53.656;9.810;2023-02-23T13:41:12;110.37;;;35.73;;
4272;SDS011;63887;53.656;9.810;2023-02-23T13:43:54;94.77;;;35.97;;
4272;SDS011;63887;53.656;9.810;2023-02-23T13:46:27;96.67;;;34.40;;
4272;SDS011;63887;53.656;9.810;2023-02-23T13:49:01;102.83;;;36.40;;
4272;SDS011;63887;53.656;9.810;2023-02-23T13:51:42;105.93;;;35.50;;
4272;SDS011;63887;53.656;9.810;2023-02-23T13:54:22;100.40;;;34.00;;
4272;SDS011;63887;53.656;9.810;2023-02-23T13:56:54;95.10;;;33.70;;
4272;SDS011;63887;53.656;9.810;2023-02-23T13:59:25;102.93;;;33.30;;
4272;SDS011;63887;53.656;9.810;2023-02-23T14:01:54;82.30;;;31.03;;
4272;SDS011;63887;53.656;9.810;2023-02-23T14:04:22;100.43;;;34.67;;
4272;SDS011;63887;53.656;9.810;2023-02-23T14:06:51;82.60;;;31.90;;
4272;SDS011;63887;53.656;9.810;2023-02-23T14:09:22;99.60;;;30.33;;
4272;SDS011;63887;53.656;9.810;2023-02-23T14:11:56;80.50;;;29.20;;
4272;SDS011;63887;53.656;9.810;2023-02-23T14:14:39;84.43;;;29.93;;
4272;SDS011;63887;53.656;9.810;2023-02-23T14:17:09;75.50;;;28.23;;
4272;SDS011;63887;53.656;9.810;2023-02-23T14:19:37;64.30;;;27.03;;
4272;SDS011;63887;53.656;9.810;2023-02-23T14:22:11;60.87;;;25.60;;
4272;SDS011;63887;53.656;9.810;2023-02-23T14:24:43;64.67;;;27.33;;
4272;SDS011;63887;53.656;9.810;2023-02-23T14:32:41;68.13;;;27.50;;
4272;SDS011;63887;53.656;9.810;2023-02-23T14:38:10;62.37;;;24.77;;
4272;SDS011;63887;53.656;9.810;2023-02-23T14:40:44;57.20;;;25.57;;
4272;SDS011;63887;53.656;9.810;2023-02-23T14:43:29;64.13;;;25.67;;
4272;SDS011;63887;53.656;9.810;2023-02-23T14:46:07;77.20;;;25.20;;
4272;SDS011;63887;53.656;9.810;2023-02-23T14:48:36;71.00;;;25.53;;
4272;SDS011;63887;53.656;9.810;2023-02-23T14:51:10;61.40;;;24.63;;
4272;SDS011;63887;53.656;9.810;2023-02-23T14:53:42;78.43;;;27.73;;
4272;SDS011;63887;53.656;9.810;2023-02-23T14:56:17;72.90;;;26.90;;
4272;SDS011;63887;53.656;9.810;2023-02-23T14:58:48;69.60;;;25.97;;
4272;SDS011;63887;53.656;9.810;2023-02-23T15:01:30;63.60;;;26.23;;
4272;SDS011;63887;53.656;9.810;2023-02-23T15:04:03;75.70;;;26.57;;
4272;SDS011;63887;53.656;9.810;2023-02-23T15:06:31;75.00;;;26.80;;
4272;SDS011;63887;53.656;9.810;2023-02-23T15:08:57;67.73;;;27.40;;
4272;SDS011;63887;53.656;9.810;2023-02-23T15:11:25;77.17;;;28.63;;
4272;SDS011;63887;53.656;9.810;2023-02-23T15:13:51;78.63;;;27.93;;
4272;SDS011;63887;53.656;9.810;2023-02-23T15:16:23;78.90;;;27.07;;
4272;SDS011;63887;53.656;9.810;2023-02-23T15:18:53;77.77;;;26.37;;
4272;SDS011;63887;53.656;9.810;2023-02-23T15:21:21;66.50;;;26.27;;
4272;SDS011;63887;53.656;9.810;2023-02-23T15:23:49;89.93;;;27.00;;
4272;SDS011;63887;53.656;9.810;2023-02-23T15:26:18;88.70;;;28.07;;
4272;SDS011;63887;53.656;9.810;2023-02-23T15:29:01;78.67;;;28.97;;
4272;SDS011;63887;53.656;9.810;2023-02-23T15:31:30;85.47;;;28.43;;
4272;SDS011;63887;53.656;9.810;2023-02-23T15:33:58;84.50;;;29.33;;
4272;SDS011;63887;53.656;9.810;2023-02-23T15:36:25;82.10;;;28.00;;
4272;SDS011;63887;53.656;9.810;2023-02-23T15:38:54;83.33;;;29.20;;
4272;SDS011;63887;53.656;9.810;2023-02-23T15:41:28;83.23;;;26.50;;
4272;SDS011;63887;53.656;9.810;2023-02-23T15:44:00;71.40;;;26.63;;
4272;SDS011;63887;53.656;9.810;2023-02-23T15:46:30;72.20;;;26.47;;
4272;SDS011;63887;53.656;9.810;2023-02-23T15:48:58;63.77;;;24.67;;
4272;SDS011;63887;53.656;9.810;2023-02-23T15:51:30;75.03;;;25.30;;
4272;SDS011;63887;53.656;9.810;2023-02-23T15:53:59;69.57;;;20.13;;
4272;SDS011;63887;53.656;9.810;2023-02-23T15:56:28;50.83;;;20.30;;
4272;SDS011;63887;53.656;9.810;2023-02-23T15:58:56;55.13;;;19.80;;
4272;SDS011;63887;53.656;9.810;2023-02-23T16:01:28;49.10;;;19.20;;
4272;SDS011;63887;53.656;9.810;2023-02-23T16:03:58;46.70;;;17.60;;
4272;SDS011;63887;53.656;9.810;2023-02-23T16:06:30;61.07;;;17.93;;
4272;SDS011;63887;53.656;9.810;2023-02-23T16:08:58;38.90;;;15.03;;
4272;SDS011;63887;53.656;9.810;2023-02-23T16:11:31;49.03;;;15.70;;
4272;SDS011;63887;53.656;9.810;2023-02-23T16:14:01;45.93;;;14.73;;
4272;SDS011;63887;53.656;9.810;2023-02-23T16:16:28;51.70;;;15.13;;
4272;SDS011;63887;53.656;9.810;2023-02-23T16:18:59;61.83;;;17.00;;
4272;SDS011;63887;53.656;9.810;2023-02-23T16:21:27;60.70;;;15.60;;
4272;SDS011;63887;53.656;9.810;2023-02-23T16:23:56;64.43;;;17.17;;
4272;SDS011;63887;53.656;9.810;2023-02-23T16:26:26;63.07;;;18.43;;
4272;SDS011;63887;53.656;9.810;2023-02-23T16:28:56;61.43;;;19.50;;
4272;SDS011;63887;53.656;9.810;2023-02-23T16:31:38;52.20;;;17.23;;
4272;SDS011;63887;53.656;9.810;2023-02-23T16:34:16;62.27;;;17.70;;
4272;SDS011;63887;53.656;9.810;2023-02-23T16:36:47;37.60;;;14.70;;
4272;SDS011;63887;53.656;9.810;2023-02-23T16:39:15;42.20;;;13.50;;
4272;SDS011;63887;53.656;9.810;2023-02-23T16:41:42;28.33;;;12.20;;
4272;SDS011;63887;53.656;9.810;2023-02-23T16:44:13;38.57;;;13.30;;
4272;SDS011;63887;53.656;9.810;2023-02-23T16:46:54;39.67;;;12.20;;
4272;SDS011;63887;53.656;9.810;2023-02-23T16:49:36;26.17;;;11.23;;
4272;SDS011;63887;53.656;9.810;2023-02-23T16:52:03;44.23;;;11.27;;
4272;SDS011;63887;53.656;9.810;2023-02-23T16:54:40;35.93;;;12.10;;
4272;SDS011;63887;53.656;9.810;2023-02-23T16:57:09;34.23;;;10.90;;
4272;SDS011;63887;53.656;9.810;2023-02-23T16:59:48;41.50;;;12.07;;
4272;SDS011;63887;53.656;9.810;2023-02-23T17:02:16;27.93;;;11.50;;
4272;SDS011;63887;53.656;9.810;2023-02-23T17:04:44;30.57;;;11.77;;
4272;SDS011;63887;53.656;9.810;2023-02-23T17:07:13;33.13;;;11.82;;
4272;SDS011;63887;53.656;9.810;2023-02-23T17:09:40;39.75;;;12.77;;
4272;SDS011;63887;53.656;9.810;2023-02-23T17:12:07;37.73;;;12.27;;
4272;SDS011;63887;53.656;9.810;2023-02-23T17:14:36;33.83;;;11.43;;
4272;SDS011;63887;53.656;9.810;2023-02-23T17:17:04;49.30;;;12.13;;
4272;SDS011;63887;53.656;9.810;2023-02-23T17:19:30;41.47;;;11.83;;
4272;SDS011;63887;53.656;9.810;2023-02-23T17:21:57;17.37;;;9.60;;
4272;SDS011;63887;53.656;9.810;2023-02-23T17:24:23;27.37;;;12.20;;
4272;SDS011;63887;53.656;9.810;2023-02-23T17:26:50;36.60;;;12.50;;
4272;SDS011;63887;53.656;9.810;2023-02-23T17:29:16;39.90;;;12.60;;
4272;SDS011;63887;53.656;9.810;2023-02-23T17:31:43;32.40;;;12.60;;
4272;SDS011;63887;53.656;9.810;2023-02-23T17:34:10;39.80;;;12.07;;
4272;SDS011;63887;53.656;9.810;2023-02-23T17:36:37;37.77;;;12.40;;
4272;SDS011;63887;53.656;9.810;2023-02-23T17:39:04;47.47;;;13.43;;
4272;SDS011;63887;53.656;9.810;2023-02-23T17:41:33;30.87;;;10.60;;
4272;SDS011;63887;53.656;9.810;2023-02-23T17:44:00;29.83;;;11.60;;
4272;SDS011;63887;53.656;9.810;2023-02-23T17:46:29;44.47;;;11.40;;
4272;SDS011;63887;53.656;9.810;2023-02-23T17:48:56;39.25;;;13.75;;
4272;SDS011;63887;53.656;9.810;2023-02-23T17:51:24;24.35;;;10.57;;
4272;SDS011;63887;53.656;9.810;2023-02-23T17:53:50;29.92;;;10.88;;
4272;SDS011;63887;53.656;9.810;2023-02-23T17:56:17;28.42;;;11.13;;
4272;SDS011;63887;53.656;9.810;2023-02-23T17:58:44;35.03;;;11.80;;
4272;SDS011;63887;53.656;9.810;2023-02-23T18:01:11;27.20;;;10.77;;
4272;SDS011;63887;53.656;9.810;2023-02-23T18:03:38;34.83;;;11.03;;
4272;SDS011;63887;53.656;9.810;2023-02-23T18:06:05;26.63;;;11.30;;
4272;SDS011;63887;53.656;9.810;2023-02-23T18:08:34;34.43;;;10.93;;
4272;SDS011;63887;53.656;9.810;2023-02-23T18:11:02;29.77;;;10.93;;
4272;SDS011;63887;53.656;9.810;2023-02-23T18:13:29;38.20;;;11.17;;
4272;SDS011;63887;53.656;9.810;2023-02-23T18:15:57;35.60;;;10.83;;
4272;SDS011;63887;53.656;9.810;2023-02-23T18:18:25;26.10;;;10.00;;
4272;SDS011;63887;53.656;9.810;2023-02-23T18:20:54;51.23;;;11.23;;
4272;SDS011;63887;53.656;9.810;2023-02-23T18:23:23;24.13;;;10.37;;
4272;SDS011;63887;53.656;9.810;2023-02-23T18:25:54;27.33;;;11.20;;
4272;SDS011;63887;53.656;9.810;2023-02-23T18:28:20;28.10;;;11.02;;
4272;SDS011;63887;53.656;9.810;2023-02-23T18:30:47;26.67;;;9.50;;
4272;SDS011;63887;53.656;9.810;2023-02-23T18:33:13;30.83;;;10.17;;
4272;SDS011;63887;53.656;9.810;2023-02-23T18:35:40;20.17;;;10.23;;
4272;SDS011;63887;53.656;9.810;2023-02-23T18:38:09;25.60;;;11.70;;
4272;SDS011;63887;53.656;9.810;2023-02-23T18:40:36;20.53;;;11.47;;
4272;SDS011;63887;53.656;9.810;2023-02-23T18:43:04;13.90;;;9.77;;
4272;SDS011;63887;53.656;9.810;2023-02-23T18:45:31;30.65;;;11.02;;
4272;SDS011;63887;53.656;9.810;2023-02-23T18:47:58;18.42;;;11.07;;
4272;SDS011;63887;53.656;9.810;2023-02-23T18:50:25;12.82;;;9.13;;
4272;SDS011;63887;53.656;9.810;2023-02-23T18:52:52;39.80;;;11.80;;
4272;SDS011;63887;53.656;9.810;2023-02-23T18:55:20;21.30;;;10.35;;
4272;SDS011;63887;53.656;9.810;2023-02-23T18:57:47;22.42;;;11.98;;
4272;SDS011;63887;53.656;9.810;2023-02-23T19:00:16;19.52;;;11.23;;
4272;SDS011;63887;53.656;9.810;2023-02-23T19:02:43;29.30;;;10.38;;
4272;SDS011;63887;53.656;9.810;2023-02-23T19:05:11;17.42;;;10.50;;
4272;SDS011;63887;53.656;9.810;2023-02-23T19:07:39;21.13;;;10.50;;
4272;SDS011;63887;53.656;9.810;2023-02-23T19:10:06;21.42;;;11.40;;
4272;SDS011;63887;53.656;9.810;2023-02-23T19:12:36;26.92;;;9.57;;
4272;SDS011;63887;53.656;9.810;2023-02-23T19:15:03;20.38;;;10.65;;
4272;SDS011;63887;53.656;9.810;2023-02-23T19:17:33;19.15;;;11.35;;
4272;SDS011;63887;53.656;9.810;2023-02-23T19:20:01;49.40;;;12.15;;
4272;SDS011;63887;53.656;9.810;2023-02-23T19:22:37;28.27;;;10.73;;
4272;SDS011;63887;53.656;9.810;2023-02-23T19:25:04;27.48;;;10.63;;
4272;SDS011;63887;53.656;9.810;2023-02-23T19:27:31;27.90;;;10.52;;
4272;SDS011;63887;53.656;9.810;2023-02-23T19:29:58;16.85;;;10.60;;
4272;SDS011;63887;53.656;9.810;2023-02-23T19:32:24;22.80;;;10.38;;
4272;SDS011;63887;53.656;9.810;2023-02-23T19:34:52;18.20;;;9.75;;
4272;SDS011;63887;53.656;9.810;2023-02-23T19:37:19;25.25;;;10.70;;
4272;SDS011;63887;53.656;9.810;2023-02-23T19:39:45;21.50;;;10.68;;
4272;SDS011;63887;53.656;9.810;2023-02-23T19:42:11;24.70;;;11.55;;
4272;SDS011;63887;53.656;9.810;2023-02-23T19:44:42;20.45;;;10.35;;
4272;SDS011;63887;53.656;9.810;2023-02-23T19:47:08;37.47;;;10.45;;
4272;SDS011;63887;53.656;9.810;2023-02-23T19:49:35;22.55;;;11.02;;
4272;SDS011;63887;53.656;9.810;2023-02-23T19:52:03;17.85;;;10.30;;
4272;SDS011;63887;53.656;9.810;2023-02-23T19:54:29;32.72;;;10.40;;
4272;SDS011;63887;53.656;9.810;2023-02-23T19:56:57;29.58;;;10.98;;
4272;SDS011;63887;53.656;9.810;2023-02-23T19:59:24;19.38;;;10.30;;
4272;SDS011;63887;53.656;9.810;2023-02-23T20:01:52;25.70;;;10.27;;
4272;SDS011;63887;53.656;9.810;2023-02-23T20:04:19;15.57;;;9.50;;
4272;SDS011;63887;53.656;9.810;2023-02-23T20:06:46;10.43;;;8.25;;
4272;SDS011;63887;53.656;9.810;2023-02-23T20:09:14;30.60;;;10.20;;
4272;SDS011;63887;53.656;9.810;2023-02-23T20:11:40;29.00;;;10.95;;
4272;SDS011;63887;53.656;9.810;2023-02-23T20:14:07;18.35;;;8.27;;
4272;SDS011;63887;53.656;9.810;2023-02-23T20:16:34;18.23;;;9.85;;
4272;SDS011;63887;53.656;9.810;2023-02-23T20:19:01;32.67;;;9.73;;
4272;SDS011;63887;53.656;9.810;2023-02-23T20:21:30;20.42;;;9.57;;
4272;SDS011;63887;53.656;9.810;2023-02-23T20:23:57;23.35;;;11.52;;
4272;SDS011;63887;53.656;9.810;2023-02-23T20:26:27;24.50;;;9.98;;
4272;SDS011;63887;53.656;9.810;2023-02-23T20:28:55;16.73;;;9.67;;
4272;SDS011;63887;53.656;9.810;2023-02-23T20:31:23;18.85;;;9.70;;
4272;SDS011;63887;53.656;9.810;2023-02-23T20:33:51;19.67;;;10.57;;
4272;SDS011;63887;53.656;9.810;2023-02-23T20:36:18;20.83;;;10.43;;
4272;SDS011;63887;53.656;9.810;2023-02-23T20:38:46;24.08;;;9.88;;
4272;SDS011;63887;53.656;9.810;2023-02-23T20:41:12;9.93;;;8.70;;
4272;SDS011;63887;53.656;9.810;2023-02-23T20:43:40;21.95;;;9.95;;
4272;SDS011;63887;53.656;9.810;2023-02-23T20:46:08;15.50;;;9.55;;
4272;SDS011;63887;53.656;9.810;2023-02-23T20:48:37;29.60;;;9.32;;
4272;SDS011;63887;53.656;9.810;2023-02-23T20:51:05;25.70;;;10.20;;
4272;SDS011;63887;53.656;9.810;2023-02-23T20:53:37;19.95;;;8.90;;
4272;SDS011;63887;53.656;9.810;2023-02-23T20:56:05;9.90;;;9.10;;
4272;SDS011;63887;53.656;9.810;2023-02-23T20:58:32;13.68;;;8.75;;
4272;SDS011;63887;53.656;9.810;2023-02-23T21:01:00;13.50;;;9.50;;
4272;SDS011;63887;53.656;9.810;2023-02-23T21:03:30;26.53;;;9.40;;
4272;SDS011;63887;53.656;9.810;2023-02-23T21:05:57;15.85;;;8.75;;
4272;SDS011;63887;53.656;9.810;2023-02-23T21:08:24;17.50;;;9.55;;
4272;SDS011;63887;53.656;9.810;2023-02-23T21:10:52;17.77;;;9.40;;
4272;SDS011;63887;53.656;9.810;2023-02-23T21:13:19;12.27;;;9.27;;
4272;SDS011;63887;53.656;9.810;2023-02-23T21:15:52;11.23;;;8.98;;
4272;SDS011;63887;53.656;9.810;2023-02-23T21:18:21;25.47;;;9.70;;
4272;SDS011;63887;53.656;9.810;2023-02-23T21:20:48;12.67;;;8.40;;
4272;SDS011;63887;53.656;9.810;2023-02-23T21:23:14;19.10;;;8.43;;
4272;SDS011;63887;53.656;9.810;2023-02-23T21:25:44;14.98;;;9.23;;
4272;SDS011;63887;53.656;9.810;2023-02-23T21:28:10;9.80;;;8.60;;
4272;SDS011;63887;53.656;9.810;2023-02-23T21:30:37;15.77;;;8.70;;
4272;SDS011;63887;53.656;9.810;2023-02-23T21:33:03;10.60;;;8.40;;
4272;SDS011;63887;53.656;9.810;2023-02-23T21:35:31;12.57;;;9.05;;
4272;SDS011;63887;53.656;9.810;2023-02-23T21:37:59;12.45;;;8.40;;
4272;SDS011;63887;53.656;9.810;2023-02-23T21:40:25;9.98;;;7.43;;
4272;SDS011;63887;53.656;9.810;2023-02-23T21:42:52;12.60;;;9.03;;
4272;SDS011;63887;53.656;9.810;2023-02-23T21:45:18;17.75;;;8.55;;
4272;SDS011;63887;53.656;9.810;2023-02-23T21:47:45;19.35;;;8.40;;
4272;SDS011;63887;53.656;9.810;2023-02-23T21:50:15;15.40;;;8.73;;
4272;SDS011;63887;53.656;9.810;2023-02-23T21:52:44;18.08;;;8.35;;
4272;SDS011;63887;53.656;9.810;2023-02-23T21:55:13;23.48;;;7.68;;
4272;SDS011;63887;53.656;9.810;2023-02-23T21:57:41;15.55;;;9.07;;
4272;SDS011;63887;53.656;9.810;2023-02-23T22:00:09;12.33;;;8.63;;
4272;SDS011;63887;53.656;9.810;2023-02-23T22:02:37;12.07;;;9.00;;
4272;SDS011;63887;53.656;9.810;2023-02-23T22:05:05;29.85;;;8.63;;
4272;SDS011;63887;53.656;9.810;2023-02-23T22:07:32;9.20;;;8.27;;
4272;SDS011;63887;53.656;9.810;2023-02-23T22:10:00;9.20;;;8.25;;
4272;SDS011;63887;53.656;9.810;2023-02-23T22:12:26;11.60;;;8.65;;
4272;SDS011;63887;53.656;9.810;2023-02-23T22:14:53;10.15;;;7.32;;
4272;SDS011;63887;53.656;9.810;2023-02-23T22:17:19;8.23;;;7.45;;
4272;SDS011;63887;53.656;9.810;2023-02-23T22:19:48;9.82;;;7.20;;
4272;SDS011;63887;53.656;9.810;2023-02-23T22:22:15;10.40;;;8.45;;
4272;SDS011;63887;53.656;9.810;2023-02-23T22:24:44;9.63;;;7.93;;
4272;SDS011;63887;53.656;9.810;2023-02-23T22:27:14;14.75;;;8.05;;
4272;SDS011;63887;53.656;9.810;2023-02-23T22:29:41;15.30;;;9.18;;
4272;SDS011;63887;53.656;9.810;2023-02-23T22:32:07;17.65;;;8.52;;
4272;SDS011;63887;53.656;9.810;2023-02-23T22:34:35;9.30;;;8.50;;
4272;SDS011;63887;53.656;9.810;2023-02-23T22:37:01;8.33;;;7.63;;
4272;SDS011;63887;53.656;9.810;2023-02-23T22:39:28;19.63;;;7.57;;
4272;SDS011;63887;53.656;9.810;2023-02-23T22:41:57;12.05;;;7.97;;
4272;SDS011;63887;53.656;9.810;2023-02-23T22:44:25;11.00;;;7.20;;
4272;SDS011;63887;53.656;9.810;2023-02-23T22:46:51;12.38;;;8.95;;
4272;SDS011;63887;53.656;9.810;2023-02-23T22:49:17;14.17;;;8.00;;
4272;SDS011;63887;53.656;9.810;2023-02-23T22:51:44;11.05;;;8.10;;
4272;SDS011;63887;53.656;9.810;2023-02-23T22:54:11;6.68;;;6.47;;
4272;SDS011;63887;53.656;9.810;2023-02-23T22:56:38;25.42;;;8.02;;
4272;SDS011;63887;53.656;9.810;2023-02-23T22:59:06;10.18;;;8.00;;
4272;SDS011;63887;53.656;9.810;2023-02-23T23:01:34;7.60;;;6.85;;
4272;SDS011;63887;53.656;9.810;2023-02-23T23:04:05;8.38;;;7.22;;
4272;SDS011;63887;53.656;9.810;2023-02-23T23:06:34;8.68;;;7.38;;
4272;SDS011;63887;53.656;9.810;2023-02-23T23:09:02;8.97;;;8.20;;
4272;SDS011;63887;53.656;9.810;2023-02-23T23:11:29;7.97;;;7.47;;
4272;SDS011;63887;53.656;9.810;2023-02-23T23:13:56;9.43;;;7.90;;
4272;SDS011;63887;53.656;9.810;2023-02-23T23:16:26;13.55;;;6.53;;
4272;SDS011;63887;53.656;9.810;2023-02-23T23:18:57;7.78;;;7.32;;
4272;SDS011;63887;53.656;9.810;2023-02-23T23:21:26;10.38;;;7.50;;
4272;SDS011;63887;53.656;9.810;2023-02-23T23:23:55;7.97;;;7.50;;
4272;SDS011;63887;53.656;9.810;2023-02-23T23:26:24;7.63;;;6.90;;
4272;SDS011;63887;53.656;9.810;2023-02-23T23:28:52;8.07;;;7.57;;
4272;SDS011;63887;53.656;9.810;2023-02-23T23:31:20;14.25;;;7.40;;
4272;SDS011;63887;53.656;9.810;2023-02-23T23:33:52;6.78;;;6.15;;
4272;SDS011;63887;53.656;9.810;2023-02-23T23:36:22;7.70;;;6.90;;
4272;SDS011;63887;53.656;9.810;2023-02-23T23:38:51;8.23;;;7.50;;
4272;SDS011;63887;53.656;9.810;2023-02-23T23:41:20;7.65;;;7.20;;
4272;SDS011;63887;53.656;9.810;2023-02-23T23:43:50;9.63;;;6.70;;
4272;SDS011;63887;53.656;9.810;2023-02-23T23:46:19;13.82;;;8.38;;
4272;SDS011;63887;53.656;9.810;2023-02-23T23:48:48;13.52;;;7.22;;
4272;SDS011;63887;53.656;9.810;2023-02-23T23:51:18;7.53;;;6.82;;
4272;SDS011;63887;53.656;9.810;2023-02-23T23:53:46;8.43;;;7.85;;
4272;SDS011;63887;53.656;9.810;2023-02-23T23:56:13;12.50;;;7.55;;
4272;SDS011;63887;53.656;9.810;2023-02-23T23:58:40;9.27;;;8.07;;
